Terminal Aerodrome Forecast
Issued by NWS

Home | Current Version | Previous Version | Text Only | Print | Product List | Glossary On
Versions: 1 2 3 4 5 6 7 8 9 10 11 12 13 14 15 16 17 18 19 20 21 22 23 24 25 26
000
FTUS41 KOKX 241100
TAFHPN
TAF
KHPN 241139Z 2412/2512 17017G29KT 3SM -SHRA BR OVC005 WS020/20045KT
     FM241500 18013G22KT 5SM BR OVC007
     FM241700 20012G21KT 6SM BR BKN012
     FM241900 21015G27KT P6SM BKN015
     FM250200 21012G20KT P6SM BKN015
     FM250400 24007KT P6SM SCT020 BKN250
      AMD NOT SKED=

USA.gov is the U.S. government's official web portal to all federal, state and local government web resources and services.